AFL204 UUEE-ZBAD
Flight info
| Callsign | AFL204 |
|---|---|
| Flight time | N/A |
| Altitude | 35000 |
| Route | N0540F350 OLMUN T629 IPSIL T830 LAMGU N604 OGSIN P983 TINRI T448 RUBOR A300 ML A308 EB G122 BEGIL R241 NOSPI R480 TR A308 GINOM Y684 UDA A575 LHT B458 PUKOL W64 ELAPU |
| Aircraft | A359/H-VGDW/C |
Departure
| Time | 2026-05-01 10:51 |
|---|---|
| Airport | Sheremetyevo International Airport (UUEE) |
Arrival
| Time | N/A |
|---|---|
| Airport | Beijing Daxing International Airport (ZBAD) |
| Time | Latitude | Longitude | Altitude | Speed | Heading |
|---|---|---|---|---|---|
| 2026-05-01 10:14 | 55.97738 | 37.41299 | 645 ft | 0 kts | 301° |
| 2026-05-01 10:38 | 55.97735 | 37.41309 | 647 ft | 4 kts | 301° |
| 2026-05-01 10:38 | 55.97721 | 37.41350 | 650 ft | 4 kts | 301° |
| 2026-05-01 10:38 | 55.97708 | 37.41389 | 648 ft | 4 kts | 303° |
| 2026-05-01 10:38 | 55.97692 | 37.41415 | 648 ft | 4 kts | 4° |
| 2026-05-01 10:39 | 55.97671 | 37.41396 | 648 ft | 4 kts | 49° |
| 2026-05-01 10:39 | 55.97656 | 37.41358 | 650 ft | 4 kts | 64° |
| 2026-05-01 10:39 | 55.97649 | 37.41328 | 649 ft | 1 kts | 76° |
| 2026-05-01 10:42 | 55.97649 | 37.41331 | 649 ft | 2 kts | 76° |
| 2026-05-01 10:42 | 55.97658 | 37.41397 | 650 ft | 7 kts | 77° |
| 2026-05-01 10:42 | 55.97669 | 37.41479 | 645 ft | 4 kts | 75° |
| 2026-05-01 10:43 | 55.97675 | 37.41543 | 645 ft | 6 kts | 94° |
| 2026-05-01 10:43 | 55.97652 | 37.41585 | 646 ft | 5 kts | 159° |
| 2026-05-01 10:43 | 55.97616 | 37.41616 | 645 ft | 6 kts | 130° |
| 2026-05-01 10:43 | 55.97614 | 37.41688 | 645 ft | 9 kts | 84° |
| 2026-05-01 10:44 | 55.97631 | 37.41821 | 645 ft | 12 kts | 75° |
| 2026-05-01 10:44 | 55.97653 | 37.41971 | 646 ft | 13 kts | 70° |
| 2026-05-01 10:44 | 55.97675 | 37.42123 | 645 ft | 13 kts | 76° |
| 2026-05-01 10:44 | 55.97700 | 37.42288 | 645 ft | 14 kts | 75° |
| 2026-05-01 10:45 | 55.97726 | 37.42462 | 645 ft | 14 kts | 77° |
| 2026-05-01 10:45 | 55.97749 | 37.42622 | 648 ft | 13 kts | 77° |
| 2026-05-01 10:45 | 55.97773 | 37.42776 | 645 ft | 13 kts | 75° |
| 2026-05-01 10:45 | 55.97797 | 37.42941 | 645 ft | 15 kts | 75° |
| 2026-05-01 10:46 | 55.97824 | 37.43122 | 647 ft | 15 kts | 75° |
| 2026-05-01 10:46 | 55.97853 | 37.43313 | 647 ft | 16 kts | 75° |
| 2026-05-01 10:46 | 55.97883 | 37.43515 | 645 ft | 17 kts | 75° |
| 2026-05-01 10:46 | 55.97911 | 37.43703 | 647 ft | 13 kts | 73° |
| 2026-05-01 10:47 | 55.97935 | 37.43862 | 647 ft | 11 kts | 75° |
| 2026-05-01 10:47 | 55.97945 | 37.43929 | 645 ft | 7 kts | 78° |
| 2026-05-01 10:47 | 55.97940 | 37.43988 | 645 ft | 0 kts | 113° |
| 2026-05-01 10:48 | 55.97934 | 37.44002 | 648 ft | 4 kts | 124° |
| 2026-05-01 10:48 | 55.97886 | 37.44052 | 645 ft | 9 kts | 157° |
| 2026-05-01 10:48 | 55.97824 | 37.44081 | 646 ft | 9 kts | 173° |
| 2026-05-01 10:49 | 55.97782 | 37.44018 | 647 ft | 8 kts | 244° |
| 2026-05-01 10:49 | 55.97775 | 37.43980 | 648 ft | 0 kts | 253° |
| 2026-05-01 10:50 | 55.97751 | 37.43822 | 650 ft | 42 kts | 255° |
| 2026-05-01 10:50 | 55.97622 | 37.42942 | 644 ft | 103 kts | 255° |
| 2026-05-01 10:50 | 55.97392 | 37.41398 | 649 ft | 153 kts | 256° |
| 2026-05-01 10:50 | 55.97105 | 37.39512 | 1090 ft | 158 kts | 256° |
| 2026-05-01 10:51 | 55.96770 | 37.37631 | 1662 ft | 160 kts | 252° |
| 2026-05-01 10:51 | 55.96393 | 37.35759 | 2309 ft | 161 kts | 251° |
| 2026-05-01 10:51 | 55.95997 | 37.33887 | 2914 ft | 165 kts | 253° |
| 2026-05-01 10:51 | 55.95702 | 37.31812 | 3215 ft | 181 kts | 259° |
| 2026-05-01 10:52 | 55.95422 | 37.29532 | 3477 ft | 200 kts | 258° |
| 2026-05-01 10:52 | 55.95079 | 37.27008 | 3743 ft | 218 kts | 257° |
| 2026-05-01 10:52 | 55.94679 | 37.24268 | 3976 ft | 239 kts | 256° |
| 2026-05-01 10:52 | 55.94230 | 37.21321 | 4428 ft | 251 kts | 256° |
| 2026-05-01 10:53 | 55.93758 | 37.18293 | 5082 ft | 256 kts | 256° |
| 2026-05-01 10:53 | 55.93276 | 37.15218 | 5774 ft | 260 kts | 256° |
| 2026-05-01 10:53 | 55.92784 | 37.12090 | 6473 ft | 264 kts | 256° |
| 2026-05-01 10:53 | 55.92291 | 37.08920 | 7154 ft | 268 kts | 257° |
| 2026-05-01 10:54 | 55.92150 | 37.05613 | 7828 ft | 268 kts | 277° |
| 2026-05-01 10:54 | 55.92702 | 37.02504 | 8515 ft | 269 kts | 303° |
| 2026-05-01 10:54 | 55.94000 | 37.00158 | 9225 ft | 268 kts | 330° |
| 2026-05-01 10:54 | 55.95662 | 36.98637 | 9980 ft | 269 kts | 339° |
| 2026-05-01 10:55 | 55.97495 | 36.97807 | 10463 ft | 280 kts | 356° |
| 2026-05-01 10:55 | 55.99436 | 36.98389 | 10907 ft | 290 kts | 25° |
| 2026-05-01 10:55 | 56.00980 | 37.00677 | 11599 ft | 295 kts | 53° |
| 2026-05-01 10:55 | 56.01689 | 37.04118 | 12346 ft | 303 kts | 82° |
| 2026-05-01 10:56 | 56.01465 | 37.07890 | 13086 ft | 309 kts | 97° |
| 2026-05-01 10:56 | 56.01415 | 37.11636 | 13742 ft | 305 kts | 79° |
| 2026-05-01 10:56 | 56.01650 | 37.15417 | 14405 ft | 307 kts | 80° |
| 2026-05-01 10:56 | 56.01820 | 37.19237 | 15057 ft | 310 kts | 82° |
| 2026-05-01 10:57 | 56.01810 | 37.23117 | 15709 ft | 315 kts | 91° |
| 2026-05-01 10:57 | 56.01349 | 37.26990 | 16343 ft | 322 kts | 101° |
| 2026-05-01 10:57 | 56.00646 | 37.30815 | 16952 ft | 326 kts | 103° |
| 2026-05-01 10:57 | 55.99883 | 37.34644 | 17579 ft | 328 kts | 103° |
| 2026-05-01 10:58 | 55.99099 | 37.38494 | 18178 ft | 331 kts | 103° |
| 2026-05-01 10:58 | 55.98314 | 37.42317 | 18747 ft | 333 kts | 103° |
| 2026-05-01 10:58 | 55.97510 | 37.46205 | 19295 ft | 335 kts | 103° |
| 2026-05-01 10:58 | 55.96697 | 37.50122 | 19859 ft | 337 kts | 103° |
| 2026-05-01 10:59 | 55.95878 | 37.54054 | 20427 ft | 339 kts | 102° |
| 2026-05-01 10:59 | 55.95054 | 37.58005 | 20989 ft | 341 kts | 102° |
| 2026-05-01 10:59 | 55.94224 | 37.61978 | 21530 ft | 343 kts | 102° |
| 2026-05-01 10:59 | 55.93387 | 37.65971 | 22070 ft | 345 kts | 102° |
| 2026-05-01 11:00 | 55.92544 | 37.69983 | 22695 ft | 346 kts | 102° |
| 2026-05-01 11:00 | 55.91718 | 37.73954 | 23195 ft | 346 kts | 99° |
| 2026-05-01 11:00 | 55.91210 | 37.78123 | 23428 ft | 344 kts | 87° |
| 2026-05-01 11:00 | 55.91252 | 37.82368 | 23684 ft | 344 kts | 76° |
| 2026-05-01 11:01 | 55.91620 | 37.86619 | 23899 ft | 351 kts | 74° |
| 2026-05-01 11:01 | 55.92058 | 37.90959 | 24093 ft | 360 kts | 73° |
| 2026-05-01 11:01 | 55.92514 | 37.95406 | 24293 ft | 369 kts | 74° |
| 2026-05-01 11:01 | 55.92980 | 37.99961 | 24470 ft | 378 kts | 74° |
| 2026-05-01 11:02 | 55.93455 | 38.04630 | 24679 ft | 387 kts | 74° |
| 2026-05-01 11:02 | 55.93939 | 38.09405 | 24908 ft | 395 kts | 74° |
| 2026-05-01 11:02 | 55.94428 | 38.14253 | 25266 ft | 399 kts | 74° |
| 2026-05-01 11:02 | 55.94911 | 38.19078 | 25664 ft | 403 kts | 74° |
| 2026-05-01 11:03 | 55.95405 | 38.24020 | 26046 ft | 406 kts | 74° |
| 2026-05-01 11:03 | 55.95901 | 38.29004 | 26454 ft | 410 kts | 74° |
| 2026-05-01 11:03 | 55.96399 | 38.34024 | 26855 ft | 413 kts | 74° |
| 2026-05-01 11:03 | 55.96899 | 38.39088 | 27254 ft | 416 kts | 74° |
| 2026-05-01 11:04 | 55.97402 | 38.44197 | 27648 ft | 419 kts | 74° |
| 2026-05-01 11:04 | 55.97906 | 38.49340 | 28031 ft | 423 kts | 75° |
| 2026-05-01 11:04 | 55.98415 | 38.54562 | 28286 ft | 429 kts | 75° |
| 2026-05-01 11:04 | 55.98926 | 38.59832 | 28678 ft | 432 kts | 75° |
| 2026-05-01 11:05 | 55.99431 | 38.65060 | 29054 ft | 434 kts | 75° |
| 2026-05-01 11:05 | 55.99944 | 38.70396 | 29399 ft | 438 kts | 75° |
| 2026-05-01 11:05 | 56.00459 | 38.75775 | 29695 ft | 441 kts | 75° |
| 2026-05-01 11:05 | 56.00975 | 38.81196 | 30024 ft | 444 kts | 75° |
| 2026-05-01 11:06 | 56.01491 | 38.86650 | 30328 ft | 446 kts | 75° |
| 2026-05-01 11:06 | 56.02009 | 38.92139 | 30604 ft | 448 kts | 75° |
| 2026-05-01 11:06 | 56.02525 | 38.97642 | 30904 ft | 449 kts | 76° |
| 2026-05-01 11:07 | 56.03553 | 39.08692 | 31473 ft | 452 kts | 76° |
| 2026-05-01 11:07 | 56.04059 | 39.14170 | 31751 ft | 453 kts | 76° |
| 2026-05-01 11:07 | 56.04570 | 39.19728 | 32021 ft | 454 kts | 76° |
| 2026-05-01 11:07 | 56.05080 | 39.25308 | 32294 ft | 455 kts | 76° |
| 2026-05-01 11:08 | 56.05588 | 39.30900 | 32556 ft | 456 kts | 76° |
| 2026-05-01 11:08 | 56.06096 | 39.36500 | 32837 ft | 458 kts | 77° |
| 2026-05-01 11:08 | 56.07135 | 39.47856 | 33136 ft | 463 kts | 76° |
| 2026-05-01 11:09 | 56.07931 | 39.53412 | 33412 ft | 460 kts | 68° |
| 2026-05-01 11:09 | 56.09146 | 39.58609 | 33651 ft | 458 kts | 61° |
| 2026-05-01 11:09 | 56.10670 | 39.63606 | 33893 ft | 458 kts | 57° |
| 2026-05-01 11:10 | 56.14099 | 39.73232 | 34321 ft | 459 kts | 54° |
| 2026-05-01 11:10 | 56.15868 | 39.77996 | 34519 ft | 459 kts | 54° |
| 2026-05-01 11:10 | 56.17632 | 39.82777 | 34696 ft | 460 kts | 55° |
| 2026-05-01 11:10 | 56.19387 | 39.87590 | 34891 ft | 461 kts | 55° |
| 2026-05-01 11:11 | 56.21128 | 39.92427 | 35062 ft | 462 kts | 56° |
| 2026-05-01 11:11 | 56.22865 | 39.97300 | 35183 ft | 464 kts | 56° |
| 2026-05-01 11:11 | 56.26323 | 40.07078 | 35478 ft | 466 kts | 56° |
| 2026-05-01 11:12 | 56.28053 | 40.11993 | 35721 ft | 465 kts | 56° |
| 2026-05-01 11:12 | 56.29779 | 40.16908 | 35894 ft | 465 kts | 56° |
| 2026-05-01 11:12 | 56.31508 | 40.21835 | 36043 ft | 466 kts | 56° |
| 2026-05-01 11:12 | 56.33238 | 40.26776 | 36213 ft | 466 kts | 56° |
| 2026-05-01 11:13 | 56.34969 | 40.31727 | 36364 ft | 467 kts | 56° |
| 2026-05-01 11:13 | 56.36700 | 40.36684 | 36498 ft | 468 kts | 56° |
| 2026-05-01 11:13 | 56.38408 | 40.41590 | 36640 ft | 469 kts | 56° |
| 2026-05-01 11:13 | 56.40143 | 40.46580 | 36748 ft | 470 kts | 56° |
| 2026-05-01 11:14 | 56.41877 | 40.51580 | 36908 ft | 470 kts | 56° |
| 2026-05-01 11:14 | 56.43613 | 40.56595 | 37034 ft | 471 kts | 56° |
| 2026-05-01 11:14 | 56.45240 | 40.61734 | 37144 ft | 473 kts | 62° |
| 2026-05-01 11:14 | 56.46497 | 40.67240 | 37195 ft | 477 kts | 70° |
| 2026-05-01 11:15 | 56.48419 | 40.78807 | 37195 ft | 482 kts | 72° |
| 2026-05-01 11:15 | 56.50149 | 40.90447 | 37208 ft | 482 kts | 73° |
| 2026-05-01 11:16 | 56.51867 | 41.02202 | 37193 ft | 484 kts | 73° |
| 2026-05-01 11:16 | 56.53598 | 41.13993 | 37189 ft | 485 kts | 73° |
| 2026-05-01 11:17 | 56.55332 | 41.25801 | 37189 ft | 485 kts | 73° |
| 2026-05-01 11:17 | 56.56956 | 41.36923 | 37189 ft | 485 kts | 73° |
| 2026-05-01 11:18 | 56.58670 | 41.48750 | 37189 ft | 485 kts | 73° |
| 2026-05-01 11:18 | 56.60372 | 41.60585 | 37184 ft | 485 kts | 73° |
| 2026-05-01 11:19 | 56.62063 | 41.72436 | 37181 ft | 485 kts | 73° |
| 2026-05-01 11:19 | 56.63734 | 41.84239 | 37178 ft | 485 kts | 74° |
| 2026-05-01 11:20 | 56.65403 | 41.96115 | 37178 ft | 485 kts | 74° |
| 2026-05-01 11:20 | 56.67068 | 42.08044 | 37177 ft | 488 kts | 74° |
| 2026-05-01 11:21 | 56.68726 | 42.20026 | 37173 ft | 489 kts | 74° |
| 2026-05-01 11:21 | 56.70374 | 42.32028 | 37173 ft | 489 kts | 75° |
| 2026-05-01 11:22 | 56.72000 | 42.43969 | 37170 ft | 489 kts | 75° |
| 2026-05-01 11:22 | 56.73627 | 42.56003 | 37170 ft | 489 kts | 75° |
| 2026-05-01 11:23 | 56.75449 | 42.67932 | 37171 ft | 489 kts | 71° |
| 2026-05-01 11:23 | 56.77457 | 42.79758 | 37170 ft | 489 kts | 71° |
| 2026-05-01 11:24 | 56.79423 | 42.91542 | 37168 ft | 489 kts | 72° |
| 2026-05-01 11:25 | 56.82306 | 43.09408 | 37184 ft | 489 kts | 72° |
| 2026-05-01 11:25 | 56.85157 | 43.27393 | 37170 ft | 493 kts | 73° |
| 2026-05-01 11:26 | 56.87983 | 43.45388 | 37165 ft | 493 kts | 73° |
| 2026-05-01 11:27 | 56.89863 | 43.57459 | 37163 ft | 493 kts | 73° |
| 2026-05-01 11:27 | 56.91730 | 43.69536 | 37162 ft | 493 kts | 73° |
| 2026-05-01 11:28 | 56.93585 | 43.81624 | 37162 ft | 493 kts | 73° |
| 2026-05-01 11:28 | 56.95418 | 43.93650 | 37162 ft | 493 kts | 73° |
| 2026-05-01 11:29 | 56.98162 | 44.11823 | 37147 ft | 493 kts | 73° |
| 2026-05-01 11:30 | 57.00883 | 44.30049 | 37160 ft | 494 kts | 74° |
| 2026-05-01 11:30 | 57.02673 | 44.42148 | 37157 ft | 495 kts | 74° |
| 2026-05-01 11:31 | 57.04466 | 44.54365 | 37156 ft | 496 kts | 74° |
| 2026-05-01 11:31 | 57.06248 | 44.66592 | 37152 ft | 496 kts | 74° |
| 2026-05-01 11:32 | 57.08019 | 44.78840 | 37153 ft | 496 kts | 74° |
| 2026-05-01 11:32 | 57.09766 | 44.91017 | 37151 ft | 496 kts | 74° |
| 2026-05-01 11:33 | 57.11514 | 45.03291 | 37146 ft | 496 kts | 75° |
| 2026-05-01 11:33 | 57.13249 | 45.15581 | 37149 ft | 496 kts | 75° |
| 2026-05-01 11:34 | 57.14973 | 45.27880 | 37144 ft | 496 kts | 75° |
| 2026-05-01 11:34 | 57.16672 | 45.40101 | 37146 ft | 496 kts | 75° |
| 2026-05-01 11:35 | 57.18373 | 45.52433 | 37139 ft | 496 kts | 75° |
| 2026-05-01 11:35 | 57.20062 | 45.64771 | 37141 ft | 496 kts | 75° |
| 2026-05-01 11:36 | 57.21738 | 45.77119 | 37138 ft | 496 kts | 75° |
| 2026-05-01 11:36 | 57.23391 | 45.89399 | 37135 ft | 496 kts | 75° |
| 2026-05-01 11:37 | 57.25042 | 46.01766 | 37135 ft | 496 kts | 75° |
| 2026-05-01 11:37 | 57.26684 | 46.14159 | 37135 ft | 497 kts | 75° |
| 2026-05-01 11:38 | 57.28315 | 46.26577 | 37134 ft | 497 kts | 76° |
| 2026-05-01 11:38 | 57.29933 | 46.39008 | 37135 ft | 497 kts | 76° |
| 2026-05-01 11:39 | 57.31528 | 46.51361 | 37136 ft | 497 kts | 76° |
| 2026-05-01 11:39 | 57.33122 | 46.63811 | 37135 ft | 497 kts | 76° |
| 2026-05-01 11:40 | 57.34821 | 46.76213 | 37126 ft | 498 kts | 70° |
| 2026-05-01 11:40 | 57.37459 | 46.88097 | 37127 ft | 499 kts | 65° |
| 2026-05-01 11:41 | 57.40280 | 46.99754 | 37125 ft | 499 kts | 65° |
| 2026-05-01 11:41 | 57.43148 | 47.11498 | 37124 ft | 499 kts | 65° |
| 2026-05-01 11:42 | 57.45992 | 47.23256 | 37130 ft | 499 kts | 65° |
| 2026-05-01 11:42 | 57.48822 | 47.35068 | 37121 ft | 501 kts | 65° |
| 2026-05-01 11:43 | 57.51621 | 47.46835 | 37124 ft | 501 kts | 66° |
| 2026-05-01 11:43 | 57.54438 | 47.58700 | 37119 ft | 501 kts | 66° |
| 2026-05-01 11:44 | 57.58644 | 47.76527 | 37120 ft | 501 kts | 66° |
| 2026-05-01 11:44 | 57.61436 | 47.88443 | 37122 ft | 502 kts | 66° |
| 2026-05-01 11:45 | 57.64198 | 48.00309 | 37119 ft | 502 kts | 66° |
| 2026-05-01 11:45 | 57.66969 | 48.12277 | 37119 ft | 502 kts | 66° |
| 2026-05-01 11:46 | 57.69730 | 48.24268 | 37120 ft | 502 kts | 66° |
| 2026-05-01 11:46 | 57.72480 | 48.36275 | 37116 ft | 502 kts | 66° |
| 2026-05-01 11:47 | 57.74845 | 48.48488 | 37118 ft | 504 kts | 77° |
| 2026-05-01 11:47 | 57.76018 | 48.61434 | 37119 ft | 504 kts | 82° |
| 2026-05-01 11:48 | 57.76946 | 48.74464 | 37115 ft | 505 kts | 83° |
| 2026-05-01 11:48 | 57.77829 | 48.87528 | 37113 ft | 505 kts | 83° |
| 2026-05-01 11:49 | 57.78711 | 49.00516 | 37109 ft | 506 kts | 83° |
| 2026-05-01 11:49 | 57.79598 | 49.13601 | 37112 ft | 507 kts | 83° |
| 2026-05-01 11:50 | 57.80478 | 49.26722 | 37113 ft | 507 kts | 83° |
| 2026-05-01 11:50 | 57.81343 | 49.39836 | 37106 ft | 507 kts | 83° |
| 2026-05-01 11:51 | 57.82189 | 49.52877 | 37108 ft | 507 kts | 83° |
| 2026-05-01 11:51 | 57.83026 | 49.66012 | 37106 ft | 507 kts | 83° |
| 2026-05-01 11:52 | 57.83850 | 49.79153 | 37103 ft | 507 kts | 84° |
| 2026-05-01 11:52 | 57.84661 | 49.92304 | 37101 ft | 507 kts | 84° |
| 2026-05-01 11:53 | 57.85454 | 50.05388 | 37098 ft | 507 kts | 84° |
| 2026-05-01 11:53 | 57.86244 | 50.18553 | 37097 ft | 507 kts | 84° |
| 2026-05-01 11:54 | 57.87023 | 50.31726 | 37099 ft | 507 kts | 84° |
| 2026-05-01 11:54 | 57.87787 | 50.44906 | 37095 ft | 508 kts | 84° |
| 2026-05-01 11:55 | 57.88537 | 50.58093 | 37096 ft | 508 kts | 84° |
| 2026-05-01 11:55 | 57.89270 | 50.71204 | 37092 ft | 508 kts | 84° |
| 2026-05-01 11:56 | 57.89992 | 50.84398 | 37093 ft | 508 kts | 84° |
| 2026-05-01 11:56 | 57.90703 | 50.97617 | 37090 ft | 508 kts | 85° |
| 2026-05-01 11:57 | 57.91282 | 51.08609 | 37092 ft | 509 kts | 85° |
| 2026-05-01 11:57 | 57.92078 | 51.24008 | 37086 ft | 509 kts | 85° |
| 2026-05-01 11:58 | 57.92748 | 51.37260 | 37087 ft | 509 kts | 85° |
| 2026-05-01 11:59 | 57.93733 | 51.57164 | 37080 ft | 509 kts | 85° |
| 2026-05-01 11:59 | 57.94380 | 51.70431 | 37080 ft | 509 kts | 85° |
| 2026-05-01 12:00 | 57.95321 | 51.90259 | 37080 ft | 509 kts | 86° |
| 2026-05-01 12:01 | 57.96235 | 52.10204 | 37074 ft | 510 kts | 86° |
| 2026-05-01 12:01 | 57.96832 | 52.23521 | 37072 ft | 511 kts | 86° |
| 2026-05-01 12:02 | 57.97407 | 52.36773 | 37072 ft | 511 kts | 86° |
| 2026-05-01 12:02 | 57.97969 | 52.50104 | 37067 ft | 511 kts | 86° |
| 2026-05-01 12:03 | 57.98520 | 52.63453 | 37067 ft | 511 kts | 87° |
| 2026-05-01 12:03 | 57.99058 | 52.76815 | 37067 ft | 512 kts | 87° |
| 2026-05-01 12:04 | 57.99579 | 52.90111 | 37066 ft | 512 kts | 87° |
| 2026-05-01 12:04 | 58.00090 | 53.03496 | 37057 ft | 512 kts | 87° |
| 2026-05-01 12:05 | 58.00587 | 53.16883 | 37044 ft | 512 kts | 88° |
| 2026-05-01 12:05 | 58.01307 | 53.36999 | 37055 ft | 513 kts | 88° |
| 2026-05-01 12:06 | 58.01767 | 53.50344 | 37050 ft | 513 kts | 88° |
| 2026-05-01 12:06 | 58.02216 | 53.63788 | 37045 ft | 513 kts | 88° |
| 2026-05-01 12:07 | 58.02651 | 53.77231 | 37045 ft | 513 kts | 89° |
| 2026-05-01 12:07 | 58.03071 | 53.90674 | 37033 ft | 513 kts | 89° |
| 2026-05-01 12:08 | 58.03481 | 54.04132 | 37032 ft | 513 kts | 89° |
| 2026-05-01 12:08 | 58.03880 | 54.17487 | 37038 ft | 513 kts | 89° |
| 2026-05-01 12:09 | 58.04266 | 54.30941 | 37030 ft | 513 kts | 89° |
| 2026-05-01 12:09 | 58.04637 | 54.44372 | 37034 ft | 512 kts | 90° |
| 2026-05-01 12:10 | 58.05167 | 54.64515 | 37032 ft | 512 kts | 90° |
| 2026-05-01 12:11 | 58.05058 | 54.84495 | 37022 ft | 508 kts | 99° |
| 2026-05-01 12:11 | 58.04196 | 54.97718 | 37025 ft | 508 kts | 101° |
| 2026-05-01 12:12 | 58.03232 | 55.10914 | 37020 ft | 508 kts | 101° |
| 2026-05-01 12:12 | 58.02260 | 55.24022 | 37016 ft | 508 kts | 101° |
| 2026-05-01 12:13 | 58.01284 | 55.37203 | 37010 ft | 507 kts | 101° |
| 2026-05-01 12:13 | 58.00315 | 55.50369 | 37002 ft | 506 kts | 101° |
| 2026-05-01 12:14 | 57.99337 | 55.63517 | 36996 ft | 506 kts | 102° |
| 2026-05-01 12:14 | 57.98342 | 55.76659 | 36994 ft | 506 kts | 102° |
| 2026-05-01 12:15 | 57.97341 | 55.89685 | 36994 ft | 506 kts | 102° |
| 2026-05-01 12:15 | 57.96324 | 56.02808 | 36996 ft | 506 kts | 102° |
| 2026-05-01 12:16 | 57.95294 | 56.15920 | 36997 ft | 506 kts | 102° |
| 2026-05-01 12:16 | 57.94252 | 56.29018 | 36985 ft | 506 kts | 102° |
| 2026-05-01 12:17 | 57.93204 | 56.42000 | 36977 ft | 505 kts | 102° |
| 2026-05-01 12:17 | 57.92136 | 56.55063 | 36982 ft | 505 kts | 103° |
| 2026-05-01 12:18 | 57.91054 | 56.68116 | 36982 ft | 505 kts | 103° |
| 2026-05-01 12:18 | 57.89960 | 56.81157 | 36979 ft | 505 kts | 103° |
| 2026-05-01 12:19 | 57.88852 | 56.94196 | 36973 ft | 505 kts | 103° |
| 2026-05-01 12:19 | 57.87739 | 57.07128 | 36976 ft | 505 kts | 103° |
| 2026-05-01 12:20 | 57.86605 | 57.20137 | 36973 ft | 505 kts | 103° |
| 2026-05-01 12:20 | 57.85457 | 57.33146 | 36968 ft | 505 kts | 103° |
| 2026-05-01 12:21 | 57.84298 | 57.46135 | 36969 ft | 505 kts | 103° |
| 2026-05-01 12:21 | 57.83324 | 57.56928 | 36968 ft | 505 kts | 103° |
| 2026-05-01 12:22 | 57.82139 | 57.69907 | 36967 ft | 505 kts | 103° |
| 2026-05-01 12:22 | 57.80950 | 57.82786 | 36968 ft | 505 kts | 104° |
| 2026-05-01 12:23 | 57.79740 | 57.95734 | 36965 ft | 504 kts | 104° |
| 2026-05-01 12:23 | 57.78525 | 58.08668 | 36960 ft | 504 kts | 104° |
| 2026-05-01 12:24 | 57.77097 | 58.23681 | 36960 ft | 503 kts | 104° |
| 2026-05-01 12:24 | 57.76057 | 58.34485 | 36961 ft | 503 kts | 104° |
| 2026-05-01 12:25 | 57.74193 | 58.53745 | 36957 ft | 503 kts | 104° |
| 2026-05-01 12:26 | 57.72931 | 58.66626 | 36954 ft | 503 kts | 104° |
| 2026-05-01 12:26 | 57.71013 | 58.85923 | 36945 ft | 503 kts | 105° |
| 2026-05-01 12:27 | 57.69078 | 59.05080 | 36932 ft | 502 kts | 105° |
| 2026-05-01 12:28 | 57.67105 | 59.24299 | 36934 ft | 502 kts | 105° |
| 2026-05-01 12:29 | 57.65104 | 59.43489 | 36921 ft | 502 kts | 105° |
| 2026-05-01 12:29 | 57.63084 | 59.62568 | 36896 ft | 501 kts | 106° |
| 2026-05-01 12:30 | 57.61029 | 59.81677 | 36911 ft | 500 kts | 106° |
| 2026-05-01 12:31 | 57.59645 | 59.94382 | 36893 ft | 500 kts | 106° |
| 2026-05-01 12:31 | 57.58258 | 60.06995 | 36904 ft | 500 kts | 106° |
| 2026-05-01 12:32 | 57.56851 | 60.19674 | 36903 ft | 500 kts | 107° |
| 2026-05-01 12:32 | 57.54713 | 60.38685 | 36892 ft | 500 kts | 107° |
| 2026-05-01 12:33 | 57.53283 | 60.51257 | 36868 ft | 500 kts | 107° |
| 2026-05-01 12:33 | 57.52164 | 60.64035 | 36887 ft | 504 kts | 99° |
| 2026-05-01 12:34 | 57.51696 | 60.77055 | 36886 ft | 505 kts | 98° |
| 2026-05-01 12:34 | 57.51325 | 60.90114 | 36883 ft | 505 kts | 98° |
| 2026-05-01 12:35 | 57.50948 | 61.03159 | 36881 ft | 505 kts | 98° |
| 2026-05-01 12:35 | 57.50545 | 61.16121 | 36882 ft | 505 kts | 98° |
| 2026-05-01 12:36 | 57.50120 | 61.29152 | 36874 ft | 505 kts | 98° |
| 2026-05-01 12:36 | 57.49680 | 61.42175 | 36883 ft | 504 kts | 99° |
| 2026-05-01 12:37 | 57.49227 | 61.55183 | 36861 ft | 504 kts | 99° |
| 2026-05-01 12:37 | 57.48766 | 61.68095 | 36881 ft | 504 kts | 99° |
| 2026-05-01 12:38 | 57.48293 | 61.81081 | 36870 ft | 504 kts | 99° |
| 2026-05-01 12:38 | 57.47805 | 61.94065 | 36846 ft | 504 kts | 99° |
| 2026-05-01 12:39 | 57.47304 | 62.07039 | 36869 ft | 503 kts | 99° |
| 2026-05-01 12:39 | 57.46790 | 62.20002 | 36869 ft | 503 kts | 99° |
| 2026-05-01 12:40 | 57.46279 | 62.32867 | 36870 ft | 503 kts | 99° |
| 2026-05-01 12:40 | 57.45752 | 62.45820 | 36859 ft | 503 kts | 99° |
| 2026-05-01 12:41 | 57.45212 | 62.58769 | 36859 ft | 503 kts | 100° |
| 2026-05-01 12:41 | 57.44658 | 62.71715 | 36852 ft | 503 kts | 100° |
| 2026-05-01 12:42 | 57.44091 | 62.84646 | 36847 ft | 503 kts | 100° |
| 2026-05-01 12:42 | 57.43515 | 62.97494 | 36836 ft | 503 kts | 100° |
| 2026-05-01 12:43 | 57.42923 | 63.10422 | 36834 ft | 503 kts | 100° |
| 2026-05-01 12:43 | 57.42317 | 63.23341 | 36832 ft | 503 kts | 101° |
| 2026-05-01 12:44 | 57.41698 | 63.36259 | 36796 ft | 502 kts | 101° |
| 2026-05-01 12:45 | 57.40421 | 63.62020 | 36818 ft | 504 kts | 101° |
| 2026-05-01 12:45 | 57.39682 | 63.74909 | 36800 ft | 500 kts | 106° |
| 2026-05-01 12:46 | 57.38133 | 63.87404 | 36802 ft | 496 kts | 110° |
| 2026-05-01 12:46 | 57.36404 | 63.99688 | 36803 ft | 496 kts | 111° |
| 2026-05-01 12:47 | 57.34625 | 64.12011 | 36760 ft | 495 kts | 111° |
| 2026-05-01 12:47 | 57.32839 | 64.24356 | 36780 ft | 497 kts | 111° |
| 2026-05-01 12:48 | 57.31049 | 64.36705 | 36782 ft | 497 kts | 111° |
| 2026-05-01 12:48 | 57.29249 | 64.49053 | 36761 ft | 497 kts | 111° |
| 2026-05-01 12:49 | 57.27456 | 64.61298 | 36758 ft | 497 kts | 111° |
| 2026-05-01 12:49 | 57.25636 | 64.73589 | 36735 ft | 496 kts | 111° |
| 2026-05-01 12:50 | 57.23802 | 64.85862 | 36731 ft | 496 kts | 111° |
| 2026-05-01 12:50 | 57.21959 | 64.98121 | 36724 ft | 496 kts | 111° |
| 2026-05-01 12:51 | 57.20118 | 65.10285 | 36719 ft | 495 kts | 111° |
| 2026-05-01 12:52 | 57.17338 | 65.28635 | 36721 ft | 497 kts | 109° |
| 2026-05-01 12:52 | 57.15806 | 65.47709 | 36718 ft | 504 kts | 102° |
| 2026-05-01 12:53 | 57.14603 | 65.66854 | 36710 ft | 504 kts | 102° |
| 2026-05-01 12:54 | 57.13776 | 65.79683 | 36716 ft | 504 kts | 103° |
| 2026-05-01 12:54 | 57.12491 | 65.98903 | 36715 ft | 504 kts | 103° |
| 2026-05-01 12:55 | 57.11182 | 66.18018 | 36706 ft | 504 kts | 103° |
| 2026-05-01 12:56 | 57.10292 | 66.30811 | 36665 ft | 504 kts | 103° |
| 2026-05-01 12:56 | 57.09385 | 66.43589 | 36705 ft | 503 kts | 103° |
| 2026-05-01 12:57 | 57.08468 | 66.56351 | 36705 ft | 503 kts | 103° |
| 2026-05-01 12:57 | 57.07076 | 66.75373 | 36691 ft | 503 kts | 104° |
| 2026-05-01 12:58 | 57.06128 | 66.88114 | 36697 ft | 503 kts | 104° |
| 2026-05-01 12:59 | 57.04593 | 67.07144 | 36689 ft | 501 kts | 105° |
| 2026-05-01 12:59 | 57.02924 | 67.26005 | 36693 ft | 501 kts | 105° |
| 2026-05-01 13:00 | 57.01248 | 67.44931 | 36690 ft | 501 kts | 105° |
| 2026-05-01 13:01 | 56.99554 | 67.63855 | 36684 ft | 501 kts | 105° |
| 2026-05-01 13:02 | 56.97840 | 67.82669 | 36680 ft | 501 kts | 105° |
| 2026-05-01 13:07 | 56.84369 | 69.20416 | 36677 ft | 501 kts | 107° |
| 2026-05-01 13:08 | 56.83067 | 69.32915 | 36679 ft | 501 kts | 107° |
| 2026-05-01 13:08 | 56.81761 | 69.45326 | 36677 ft | 501 kts | 107° |
| 2026-05-01 13:09 | 56.80435 | 69.57808 | 36675 ft | 501 kts | 107° |
| 2026-05-01 13:09 | 56.79095 | 69.70279 | 36672 ft | 501 kts | 107° |
| 2026-05-01 13:10 | 56.77743 | 69.82742 | 36671 ft | 501 kts | 108° |
| 2026-05-01 13:10 | 56.76385 | 69.95129 | 36672 ft | 502 kts | 108° |
| 2026-05-01 13:11 | 56.75006 | 70.07596 | 36670 ft | 502 kts | 108° |
| 2026-05-01 13:11 | 56.73616 | 70.20047 | 36668 ft | 501 kts | 108° |
| 2026-05-01 13:12 | 56.72179 | 70.32467 | 36667 ft | 501 kts | 109° |
| 2026-05-01 13:12 | 56.70665 | 70.44737 | 36647 ft | 500 kts | 109° |
| 2026-05-01 13:13 | 56.69125 | 70.57092 | 36666 ft | 500 kts | 109° |
| 2026-05-01 13:13 | 56.67587 | 70.69429 | 36655 ft | 500 kts | 109° |
| 2026-05-01 13:14 | 56.66046 | 70.81752 | 36658 ft | 500 kts | 109° |
| 2026-05-01 13:14 | 56.64503 | 70.93985 | 36668 ft | 500 kts | 109° |
| 2026-05-01 13:15 | 56.62939 | 71.06280 | 36669 ft | 500 kts | 109° |
| 2026-05-01 13:15 | 56.61361 | 71.18571 | 36654 ft | 501 kts | 109° |
| 2026-05-01 13:16 | 56.59762 | 71.30904 | 36657 ft | 502 kts | 109° |
| 2026-05-01 13:16 | 56.58162 | 71.43164 | 36655 ft | 502 kts | 109° |
| 2026-05-01 13:17 | 56.54908 | 71.67791 | 36644 ft | 502 kts | 110° |
| 2026-05-01 13:18 | 56.52437 | 71.86212 | 36644 ft | 501 kts | 110° |
| 2026-05-01 13:18 | 56.50785 | 71.98395 | 36638 ft | 501 kts | 110° |
| 2026-05-01 13:19 | 56.49112 | 72.10639 | 36645 ft | 501 kts | 110° |
| 2026-05-01 13:20 | 56.46580 | 72.28992 | 36640 ft | 501 kts | 110° |
| 2026-05-01 13:20 | 56.44878 | 72.41206 | 36644 ft | 501 kts | 110° |
| 2026-05-01 13:21 | 56.42315 | 72.59407 | 36608 ft | 500 kts | 110° |
| 2026-05-01 13:21 | 56.40588 | 72.71565 | 36636 ft | 499 kts | 110° |
| 2026-05-01 13:22 | 56.38853 | 72.83677 | 36631 ft | 499 kts | 110° |
| 2026-05-01 13:22 | 56.37105 | 72.95786 | 36629 ft | 498 kts | 110° |
| 2026-05-01 13:23 | 56.35358 | 73.07791 | 36636 ft | 498 kts | 110° |
| 2026-05-01 13:23 | 56.33586 | 73.19876 | 36635 ft | 499 kts | 110° |
| 2026-05-01 13:24 | 56.31803 | 73.31953 | 36646 ft | 499 kts | 110° |
| 2026-05-01 13:25 | 56.29117 | 73.49978 | 36644 ft | 499 kts | 110° |
| 2026-05-01 13:25 | 56.27305 | 73.62018 | 36658 ft | 499 kts | 110° |
| 2026-05-01 13:26 | 56.25481 | 73.74055 | 36663 ft | 498 kts | 111° |
| 2026-05-01 13:26 | 56.23645 | 73.86080 | 36668 ft | 499 kts | 111° |
| 2026-05-01 13:27 | 56.22219 | 73.98366 | 36676 ft | 506 kts | 103° |
| 2026-05-01 13:27 | 56.20812 | 74.17087 | 36685 ft | 507 kts | 102° |
| 2026-05-01 13:28 | 56.19447 | 74.35917 | 36691 ft | 507 kts | 102° |
| 2026-05-01 13:29 | 56.17553 | 74.60903 | 36708 ft | 507 kts | 103° |
| 2026-05-01 13:31 | 56.14601 | 74.98445 | 36717 ft | 506 kts | 103° |
| 2026-05-01 13:32 | 56.12062 | 75.29596 | 36738 ft | 507 kts | 103° |
| 2026-05-01 13:33 | 56.09438 | 75.60808 | 36749 ft | 507 kts | 103° |
| 2026-05-01 13:34 | 56.07284 | 75.85697 | 36758 ft | 508 kts | 103° |
| 2026-05-01 13:35 | 56.05631 | 76.04425 | 36769 ft | 508 kts | 103° |
| 2026-05-01 13:36 | 56.03958 | 76.23030 | 36768 ft | 507 kts | 103° |
| 2026-05-01 13:36 | 56.02249 | 76.41697 | 36772 ft | 508 kts | 103° |
| 2026-05-01 13:37 | 56.01092 | 76.54155 | 36784 ft | 508 kts | 104° |
| 2026-05-01 13:37 | 55.99923 | 76.66605 | 36786 ft | 508 kts | 104° |
| 2026-05-01 13:38 | 55.98155 | 76.85179 | 36799 ft | 508 kts | 104° |
| 2026-05-01 13:39 | 55.96955 | 76.97595 | 36793 ft | 507 kts | 104° |
| 2026-05-01 13:39 | 55.95747 | 77.09983 | 36802 ft | 507 kts | 104° |
| 2026-05-01 13:40 | 55.94525 | 77.22367 | 36803 ft | 507 kts | 104° |
| 2026-05-01 13:40 | 55.93299 | 77.34660 | 36808 ft | 507 kts | 104° |
| 2026-05-01 13:41 | 55.92053 | 77.47020 | 36806 ft | 506 kts | 104° |
| 2026-05-01 13:41 | 55.90794 | 77.59372 | 36816 ft | 507 kts | 104° |
| 2026-05-01 13:42 | 55.89522 | 77.71730 | 36816 ft | 507 kts | 104° |
| 2026-05-01 13:42 | 55.88247 | 77.83987 | 36821 ft | 507 kts | 104° |
| 2026-05-01 13:43 | 55.86949 | 77.96317 | 36819 ft | 506 kts | 104° |
| 2026-05-01 13:43 | 55.85563 | 78.08599 | 36826 ft | 506 kts | 105° |
| 2026-05-01 13:44 | 55.84137 | 78.20864 | 36833 ft | 506 kts | 105° |
| 2026-05-01 13:44 | 55.82719 | 78.33038 | 36831 ft | 506 kts | 105° |
| 2026-05-01 13:45 | 55.81289 | 78.45290 | 36831 ft | 506 kts | 105° |
| 2026-05-01 13:45 | 55.79849 | 78.57527 | 36831 ft | 506 kts | 105° |
| 2026-05-01 13:46 | 55.78397 | 78.69759 | 36824 ft | 505 kts | 105° |
| 2026-05-01 13:46 | 55.76944 | 78.81890 | 36843 ft | 505 kts | 105° |
| 2026-05-01 13:47 | 55.75468 | 78.94094 | 36845 ft | 506 kts | 105° |
| 2026-05-01 13:47 | 55.73980 | 79.06293 | 36845 ft | 506 kts | 105° |
| 2026-05-01 13:48 | 55.72480 | 79.18481 | 36860 ft | 506 kts | 106° |
| 2026-05-01 13:48 | 55.70969 | 79.30654 | 36845 ft | 505 kts | 105° |
| 2026-05-01 13:49 | 55.69454 | 79.42743 | 36864 ft | 506 kts | 106° |
| 2026-05-01 13:49 | 55.67917 | 79.54912 | 36867 ft | 506 kts | 106° |
| 2026-05-01 13:50 | 55.66369 | 79.67069 | 36872 ft | 506 kts | 106° |
| 2026-05-01 13:50 | 55.64809 | 79.79209 | 36876 ft | 506 kts | 106° |
| 2026-05-01 13:51 | 55.63247 | 79.91265 | 36869 ft | 506 kts | 106° |
| 2026-05-01 13:51 | 55.61682 | 80.03394 | 36879 ft | 505 kts | 106° |
| 2026-05-01 13:52 | 55.60114 | 80.15474 | 36885 ft | 504 kts | 106° |
| 2026-05-01 13:52 | 55.58532 | 80.27554 | 36888 ft | 504 kts | 106° |
| 2026-05-01 13:53 | 55.56938 | 80.39612 | 36896 ft | 504 kts | 106° |
| 2026-05-01 13:53 | 55.54536 | 80.57602 | 36897 ft | 504 kts | 106° |
| 2026-05-01 13:54 | 55.52911 | 80.69652 | 36905 ft | 504 kts | 106° |
| 2026-05-01 13:54 | 55.51274 | 80.81689 | 36907 ft | 504 kts | 106° |
| 2026-05-01 13:55 | 55.49637 | 80.93638 | 36915 ft | 504 kts | 106° |
| 2026-05-01 13:55 | 55.47978 | 81.05648 | 36916 ft | 504 kts | 107° |
| 2026-05-01 13:56 | 55.46305 | 81.17662 | 36922 ft | 505 kts | 106° |
| 2026-05-01 13:56 | 55.44597 | 81.29636 | 36925 ft | 503 kts | 107° |
| 2026-05-01 13:57 | 55.43158 | 81.39569 | 36929 ft | 503 kts | 107° |
| 2026-05-01 13:57 | 55.41140 | 81.53429 | 36933 ft | 503 kts | 107° |
| 2026-05-01 13:58 | 55.39395 | 81.65355 | 36939 ft | 503 kts | 107° |
| 2026-05-01 13:58 | 55.37639 | 81.77269 | 36939 ft | 504 kts | 107° |
| 2026-05-01 13:59 | 55.35870 | 81.89187 | 36951 ft | 504 kts | 107° |
| 2026-05-01 13:59 | 55.34100 | 82.01017 | 36948 ft | 504 kts | 107° |
| 2026-05-01 14:00 | 55.32307 | 82.12923 | 36957 ft | 504 kts | 107° |
| 2026-05-01 14:00 | 55.30501 | 82.24817 | 36952 ft | 504 kts | 107° |
| 2026-05-01 14:01 | 55.28453 | 82.36561 | 36945 ft | 503 kts | 115° |
| 2026-05-01 14:01 | 55.24823 | 82.46873 | 36964 ft | 495 kts | 131° |
| 2026-05-01 14:02 | 55.20341 | 82.55908 | 36967 ft | 494 kts | 135° |
| 2026-05-01 14:02 | 55.15692 | 82.64776 | 36967 ft | 494 kts | 135° |
| 2026-05-01 14:03 | 55.11041 | 82.73635 | 36965 ft | 494 kts | 135° |
| 2026-05-01 14:03 | 55.06407 | 82.82510 | 36968 ft | 495 kts | 135° |
| 2026-05-01 14:04 | 55.01783 | 82.91371 | 36966 ft | 494 kts | 134° |
| 2026-05-01 14:04 | 54.97933 | 82.98728 | 36973 ft | 494 kts | 134° |
| 2026-05-01 14:05 | 54.92632 | 83.09143 | 36983 ft | 496 kts | 128° |
| 2026-05-01 14:05 | 54.88537 | 83.18803 | 36992 ft | 497 kts | 127° |
| 2026-05-01 14:06 | 54.86529 | 83.23680 | 37225 ft | 496 kts | 127° |
| 2026-05-01 14:06 | 54.84534 | 83.28546 | 37516 ft | 494 kts | 127° |
| 2026-05-01 14:06 | 54.82546 | 83.33394 | 37747 ft | 493 kts | 127° |
| 2026-05-01 14:06 | 54.80558 | 83.38226 | 38011 ft | 491 kts | 127° |
| 2026-05-01 14:07 | 54.78602 | 83.42961 | 38252 ft | 489 kts | 127° |
| 2026-05-01 14:07 | 54.76616 | 83.47753 | 38431 ft | 489 kts | 127° |
| 2026-05-01 14:07 | 54.74630 | 83.52530 | 38580 ft | 489 kts | 126° |
| 2026-05-01 14:08 | 54.70641 | 83.62091 | 38802 ft | 490 kts | 127° |
| 2026-05-01 14:08 | 54.66639 | 83.71644 | 38980 ft | 492 kts | 127° |
| 2026-05-01 14:09 | 54.62605 | 83.81238 | 39004 ft | 494 kts | 127° |
| 2026-05-01 14:09 | 54.58588 | 83.90759 | 39009 ft | 494 kts | 127° |
| 2026-05-01 14:10 | 54.54558 | 84.00318 | 39006 ft | 493 kts | 125° |
| 2026-05-01 14:10 | 54.50966 | 84.10367 | 39005 ft | 493 kts | 119° |
| 2026-05-01 14:11 | 54.48276 | 84.21212 | 39032 ft | 493 kts | 110° |
| 2026-05-01 14:11 | 54.44831 | 84.37810 | 39016 ft | 494 kts | 109° |
| 2026-05-01 14:12 | 54.42539 | 84.48927 | 39028 ft | 494 kts | 110° |
| 2026-05-01 14:12 | 54.40218 | 84.60019 | 39032 ft | 494 kts | 110° |
| 2026-05-01 14:13 | 54.38272 | 84.69227 | 39026 ft | 494 kts | 110° |
| 2026-05-01 14:13 | 54.35542 | 84.82069 | 39023 ft | 492 kts | 110° |
| 2026-05-01 14:14 | 54.33187 | 84.93085 | 39035 ft | 492 kts | 110° |
| 2026-05-01 14:14 | 54.30823 | 85.04087 | 39037 ft | 492 kts | 110° |
| 2026-05-01 14:15 | 54.28448 | 85.15080 | 39042 ft | 492 kts | 110° |
| 2026-05-01 14:15 | 54.26064 | 85.26057 | 39046 ft | 492 kts | 110° |
| 2026-05-01 14:16 | 54.23686 | 85.36946 | 39044 ft | 492 kts | 110° |
| 2026-05-01 14:16 | 54.21058 | 85.47743 | 39047 ft | 492 kts | 115° |
| 2026-05-01 14:17 | 54.18037 | 85.58242 | 39057 ft | 493 kts | 116° |
| 2026-05-01 14:17 | 54.15012 | 85.68725 | 39052 ft | 492 kts | 115° |
| 2026-05-01 14:18 | 54.12051 | 85.79224 | 39063 ft | 491 kts | 115° |
| 2026-05-01 14:18 | 54.09603 | 85.87972 | 39062 ft | 492 kts | 115° |
| 2026-05-01 14:19 | 54.06174 | 86.00197 | 39060 ft | 492 kts | 115° |
| 2026-05-01 14:19 | 54.03208 | 86.10709 | 39065 ft | 492 kts | 115° |
| 2026-05-01 14:20 | 53.98751 | 86.26430 | 39066 ft | 492 kts | 115° |
| 2026-05-01 14:21 | 53.95784 | 86.36829 | 39068 ft | 493 kts | 115° |
| 2026-05-01 14:21 | 53.92783 | 86.47300 | 39071 ft | 494 kts | 115° |
| 2026-05-01 14:22 | 53.88259 | 86.62998 | 39075 ft | 494 kts | 115° |
| 2026-05-01 14:22 | 53.85234 | 86.73442 | 39078 ft | 494 kts | 115° |
| 2026-05-01 14:23 | 53.82220 | 86.83804 | 39076 ft | 494 kts | 115° |
| 2026-05-01 14:23 | 53.79719 | 86.94603 | 39076 ft | 493 kts | 107° |
| 2026-05-01 14:24 | 53.77521 | 87.05604 | 39069 ft | 494 kts | 107° |
| 2026-05-01 14:24 | 53.75360 | 87.16625 | 39065 ft | 494 kts | 107° |
| 2026-05-01 14:25 | 53.73198 | 87.27560 | 39056 ft | 494 kts | 107° |
| 2026-05-01 14:25 | 53.71003 | 87.38545 | 39060 ft | 494 kts | 107° |
| 2026-05-01 14:26 | 53.67683 | 87.55012 | 39055 ft | 495 kts | 107° |
| 2026-05-01 14:27 | 53.65474 | 87.65920 | 39055 ft | 495 kts | 107° |
| 2026-05-01 14:27 | 53.63235 | 87.76878 | 39058 ft | 495 kts | 107° |
| 2026-05-01 14:28 | 53.59859 | 87.93298 | 39073 ft | 495 kts | 107° |
| 2026-05-01 14:28 | 53.57590 | 88.04245 | 39067 ft | 496 kts | 107° |
| 2026-05-01 14:29 | 53.55309 | 88.15193 | 39082 ft | 496 kts | 107° |
| 2026-05-01 14:30 | 53.50730 | 88.37003 | 39098 ft | 496 kts | 107° |
| 2026-05-01 14:31 | 53.47261 | 88.53381 | 39100 ft | 497 kts | 107° |
| 2026-05-01 14:31 | 53.44927 | 88.64325 | 39108 ft | 498 kts | 107° |
| 2026-05-01 14:32 | 53.42602 | 88.75169 | 39105 ft | 498 kts | 107° |
| 2026-05-01 14:32 | 53.40250 | 88.86079 | 39117 ft | 498 kts | 107° |
| 2026-05-01 14:33 | 53.37890 | 88.96975 | 39113 ft | 498 kts | 107° |
| 2026-05-01 14:33 | 53.35476 | 89.07856 | 39128 ft | 498 kts | 108° |
| 2026-05-01 14:34 | 53.33055 | 89.18633 | 39138 ft | 498 kts | 108° |
| 2026-05-01 14:34 | 53.30612 | 89.29488 | 39137 ft | 499 kts | 108° |
| 2026-05-01 14:35 | 53.28164 | 89.40330 | 39138 ft | 499 kts | 108° |
| 2026-05-01 14:35 | 53.25709 | 89.51159 | 39138 ft | 498 kts | 108° |
| 2026-05-01 14:36 | 53.23246 | 89.61965 | 39134 ft | 497 kts | 108° |
| 2026-05-01 14:36 | 53.20794 | 89.72666 | 39135 ft | 497 kts | 108° |
| 2026-05-01 14:37 | 53.18319 | 89.83418 | 39137 ft | 497 kts | 108° |
| 2026-05-01 14:37 | 53.15833 | 89.94160 | 39138 ft | 497 kts | 108° |
| 2026-05-01 14:38 | 53.13335 | 90.04895 | 39132 ft | 497 kts | 108° |
| 2026-05-01 14:38 | 53.10840 | 90.15571 | 39128 ft | 498 kts | 108° |
| 2026-05-01 14:39 | 53.08316 | 90.26312 | 39123 ft | 499 kts | 108° |
| 2026-05-01 14:39 | 53.05782 | 90.37044 | 39124 ft | 499 kts | 108° |
| 2026-05-01 14:40 | 53.03237 | 90.47768 | 39122 ft | 499 kts | 108° |
| 2026-05-01 14:40 | 53.00698 | 90.58414 | 39124 ft | 500 kts | 108° |
| 2026-05-01 14:41 | 52.98129 | 90.69135 | 39118 ft | 500 kts | 108° |
| 2026-05-01 14:41 | 52.95548 | 90.79849 | 39124 ft | 500 kts | 108° |
| 2026-05-01 14:42 | 52.92959 | 90.90541 | 39124 ft | 500 kts | 108° |
| 2026-05-01 14:42 | 52.90360 | 91.01223 | 39132 ft | 500 kts | 108° |
| 2026-05-01 14:43 | 52.87770 | 91.11826 | 39127 ft | 501 kts | 108° |
| 2026-05-01 14:43 | 52.85147 | 91.22510 | 39117 ft | 501 kts | 108° |
| 2026-05-01 14:44 | 52.82512 | 91.33190 | 39116 ft | 501 kts | 109° |
| 2026-05-01 14:44 | 52.78544 | 91.49175 | 39125 ft | 501 kts | 109° |
| 2026-05-01 14:45 | 52.74557 | 91.65088 | 39123 ft | 503 kts | 109° |
| 2026-05-01 14:46 | 52.71872 | 91.75734 | 39135 ft | 502 kts | 109° |
| 2026-05-01 14:46 | 52.67835 | 91.91657 | 39137 ft | 502 kts | 109° |
| 2026-05-01 14:47 | 52.65134 | 92.02256 | 39149 ft | 502 kts | 109° |
| 2026-05-01 14:48 | 52.61074 | 92.18091 | 39136 ft | 503 kts | 109° |
| 2026-05-01 14:48 | 52.56968 | 92.33984 | 39141 ft | 504 kts | 109° |
| 2026-05-01 14:49 | 52.51460 | 92.55137 | 39141 ft | 504 kts | 109° |
| 2026-05-01 14:50 | 52.45923 | 92.76203 | 39154 ft | 504 kts | 109° |
| 2026-05-01 14:51 | 52.42207 | 92.90225 | 39157 ft | 504 kts | 109° |
| 2026-05-01 14:52 | 52.38002 | 93.06005 | 39168 ft | 505 kts | 109° |
| 2026-05-01 14:53 | 52.33758 | 93.21814 | 39171 ft | 506 kts | 109° |
| 2026-05-01 14:53 | 52.30935 | 93.32268 | 39169 ft | 506 kts | 109° |
| 2026-05-01 14:54 | 52.28083 | 93.42781 | 39159 ft | 506 kts | 109° |
| 2026-05-01 14:54 | 52.25221 | 93.53285 | 39163 ft | 507 kts | 109° |
| 2026-05-01 14:55 | 52.22345 | 93.63792 | 39151 ft | 507 kts | 109° |
| 2026-05-01 14:55 | 52.19462 | 93.74276 | 39152 ft | 506 kts | 109° |
| 2026-05-01 14:56 | 52.16591 | 93.84671 | 39149 ft | 506 kts | 109° |
| 2026-05-01 14:56 | 52.13705 | 93.95124 | 39169 ft | 506 kts | 109° |
| 2026-05-01 14:57 | 52.10895 | 94.05630 | 39148 ft | 507 kts | 108° |
| 2026-05-01 14:57 | 52.06704 | 94.21324 | 39153 ft | 507 kts | 109° |
| 2026-05-01 14:58 | 52.03871 | 94.31817 | 39152 ft | 507 kts | 109° |
| 2026-05-01 14:58 | 52.01021 | 94.42298 | 39156 ft | 507 kts | 109° |
| 2026-05-01 14:59 | 51.98162 | 94.52762 | 39157 ft | 507 kts | 109° |
| 2026-05-01 14:59 | 51.95293 | 94.63220 | 39149 ft | 507 kts | 109° |
| 2026-05-01 15:00 | 51.91001 | 94.78776 | 39161 ft | 506 kts | 109° |
| 2026-05-01 15:01 | 51.88119 | 94.89165 | 39177 ft | 506 kts | 109° |
| 2026-05-01 15:01 | 51.85223 | 94.99558 | 39160 ft | 507 kts | 109° |
| 2026-05-01 15:02 | 51.82316 | 95.09945 | 39161 ft | 507 kts | 109° |
| 2026-05-01 15:02 | 51.79398 | 95.20324 | 39162 ft | 507 kts | 109° |
| 2026-05-01 15:03 | 51.76491 | 95.30618 | 39172 ft | 507 kts | 109° |
| 2026-05-01 15:03 | 51.73553 | 95.40976 | 39171 ft | 508 kts | 109° |
| 2026-05-01 15:04 | 51.70605 | 95.51329 | 39181 ft | 508 kts | 109° |
| 2026-05-01 15:04 | 51.67644 | 95.61673 | 39178 ft | 508 kts | 110° |
| 2026-05-01 15:05 | 51.64683 | 95.71975 | 39180 ft | 506 kts | 110° |
| 2026-05-01 15:05 | 51.61739 | 95.82171 | 39191 ft | 506 kts | 110° |
| 2026-05-01 15:06 | 51.58769 | 95.92421 | 39175 ft | 506 kts | 110° |
| 2026-05-01 15:06 | 51.55784 | 96.02672 | 39174 ft | 506 kts | 110° |
| 2026-05-01 15:07 | 51.52790 | 96.12915 | 39174 ft | 507 kts | 110° |
| 2026-05-01 15:07 | 51.49808 | 96.23071 | 39170 ft | 507 kts | 110° |
| 2026-05-01 15:08 | 51.46793 | 96.33296 | 39177 ft | 507 kts | 110° |
| 2026-05-01 15:08 | 51.43769 | 96.43511 | 39172 ft | 507 kts | 110° |
| 2026-05-01 15:09 | 51.40738 | 96.53707 | 39180 ft | 507 kts | 110° |
| 2026-05-01 15:09 | 51.37700 | 96.63876 | 39178 ft | 507 kts | 110° |
| 2026-05-01 15:10 | 51.34669 | 96.73979 | 39185 ft | 507 kts | 110° |
| 2026-05-01 15:10 | 51.30074 | 96.89218 | 39185 ft | 507 kts | 110° |
| 2026-05-01 15:11 | 51.25452 | 97.04451 | 39189 ft | 508 kts | 110° |
| 2026-05-01 15:12 | 51.22382 | 97.14519 | 39187 ft | 508 kts | 111° |
| 2026-05-01 15:12 | 51.17725 | 97.29714 | 39181 ft | 509 kts | 111° |
| 2026-05-01 15:14 | 51.09928 | 97.54929 | 39170 ft | 509 kts | 111° |
| 2026-05-01 15:14 | 51.05224 | 97.70022 | 39185 ft | 507 kts | 111° |
| 2026-05-01 15:15 | 50.98933 | 97.90102 | 39182 ft | 507 kts | 111° |
| 2026-05-01 15:16 | 50.92983 | 98.10290 | 39190 ft | 507 kts | 109° |
| 2026-05-01 15:18 | 50.85460 | 98.35543 | 39188 ft | 507 kts | 110° |
| 2026-05-01 15:19 | 50.79396 | 98.55624 | 39175 ft | 508 kts | 111° |
| 2026-05-01 15:19 | 50.74816 | 98.70672 | 39196 ft | 507 kts | 111° |
| 2026-05-01 15:20 | 50.70223 | 98.85697 | 39173 ft | 507 kts | 111° |
| 2026-05-01 15:21 | 50.67171 | 98.95629 | 39171 ft | 507 kts | 111° |
| 2026-05-01 15:21 | 50.64089 | 99.05609 | 39168 ft | 507 kts | 111° |
| 2026-05-01 15:22 | 50.59447 | 99.20569 | 39169 ft | 507 kts | 111° |
| 2026-05-01 15:22 | 50.56364 | 99.30452 | 39167 ft | 507 kts | 111° |
| 2026-05-01 15:23 | 50.53248 | 99.40403 | 39169 ft | 507 kts | 111° |
| 2026-05-01 15:23 | 50.50121 | 99.50349 | 39167 ft | 508 kts | 111° |
| 2026-05-01 15:24 | 50.46987 | 99.60277 | 39167 ft | 508 kts | 111° |
| 2026-05-01 15:24 | 50.43863 | 99.70131 | 39169 ft | 508 kts | 112° |
| 2026-05-01 15:25 | 50.40710 | 99.80041 | 39168 ft | 508 kts | 112° |
| 2026-05-01 15:25 | 50.37537 | 99.89974 | 39163 ft | 510 kts | 112° |
| 2026-05-01 15:26 | 50.34353 | 99.99902 | 39154 ft | 510 kts | 112° |
| 2026-05-01 15:26 | 50.31160 | 100.09821 | 39152 ft | 510 kts | 112° |
| 2026-05-01 15:27 | 50.27977 | 100.19658 | 39153 ft | 510 kts | 112° |
| 2026-05-01 15:28 | 50.23149 | 100.34513 | 39142 ft | 511 kts | 112° |
| 2026-05-01 15:28 | 50.19921 | 100.44406 | 39141 ft | 512 kts | 113° |
| 2026-05-01 15:29 | 50.15077 | 100.59152 | 39161 ft | 511 kts | 113° |
| 2026-05-01 15:30 | 50.08576 | 100.78827 | 39143 ft | 511 kts | 113° |
| 2026-05-01 15:31 | 49.98767 | 101.08215 | 39154 ft | 513 kts | 114° |
| 2026-05-01 15:32 | 49.92145 | 101.27866 | 39158 ft | 514 kts | 114° |
| 2026-05-01 15:34 | 49.82152 | 101.57234 | 39164 ft | 516 kts | 114° |